Time;durP1;ratioP1;P1;durP2;ratioP2;P2;SDS_P1;SDS_P2;PMS_P1;PMS_P2;Temp;Humidity;BMP_temperature;BMP_pressure;BME280_temperature;BME280_humidity;BME280_pressure;Samples;Min_cycle;Max_cycle;Signal;HPM_P1;HPM_P2
2022/04/03 00:02:13;;;;;;;4.43;3.63;;;;;;;1.29;70.43;102430.50;10376852;28;20037;-70
2022/04/03 00:07:14;;;;;;;6.32;3.90;;;;;;;1.46;70.43;102432.06;10376509;28;20457;-72
2022/04/03 00:12:14;;;;;;;6.45;4.07;;;;;;;1.48;69.69;102432.84;10376537;28;20042;-71
2022/04/03 00:17:15;;;;;;;5.47;3.38;;;;;;;1.23;69.80;102440.72;10376708;28;20054;-71
2022/04/03 00:22:15;;;;;;;4.03;3.63;;;;;;;1.06;70.56;102436.47;10375266;28;20050;-72
2022/04/03 00:27:15;;;;;;;4.47;3.45;;;;;;;1.17;71.57;102445.50;10375022;28;20030;-71
2022/04/03 00:32:16;;;;;;;4.63;3.97;;;;;;;1.48;71.50;102446.19;10380931;28;20350;-71
2022/04/03 00:37:16;;;;;;;13.00;3.92;;;;;;;1.72;71.71;102445.50;10384253;28;20117;-71
2022/04/03 00:42:17;;;;;;;6.00;3.78;;;;;;;1.84;71.26;102431.34;10359688;28;20038;-71
2022/04/03 00:47:19;;;;;;;10.20;4.15;;;;;;;1.73;71.07;102420.53;10375214;28;20026;-70
2022/04/03 00:52:20;;;;;;;8.18;4.38;;;;;;;1.59;71.14;102424.09;10358619;28;20179;-71
2022/04/03 00:57:21;;;;;;;4.10;3.70;;;;;;;1.46;71.23;102432.06;10374010;28;20470;-71
2022/04/03 01:02:21;;;;;;;11.40;4.38;;;;;;;1.39;71.47;102426.28;10373696;28;20022;-71
2022/04/03 01:07:22;;;;;;;3.47;3.00;;;;;;;1.37;71.69;102435.34;10374638;28;20042;-72
2022/04/03 01:12:22;;;;;;;9.38;3.10;;;;;;;1.43;71.93;102432.25;10373710;28;20076;-71
2022/04/03 01:17:23;;;;;;;4.15;3.72;;;;;;;1.46;71.78;102425.88;10374580;28;20053;-72
2022/04/03 01:22:23;;;;;;;7.03;4.30;;;;;;;1.45;72.02;102427.69;10375833;28;20045;-71
2022/04/03 01:27:24;;;;;;;4.43;2.80;;;;;;;1.28;72.39;102414.59;10376060;28;20061;-71
2022/04/03 01:32:24;;;;;;;2.38;2.28;;;;;;;1.13;71.95;102419.13;10357188;28;20033;-71
2022/04/03 01:37:25;;;;;;;3.30;3.00;;;;;;;0.94;72.39;102408.75;10372553;28;20056;-72
2022/04/03 01:42:25;;;;;;;8.00;4.22;;;;;;;0.72;72.46;102411.06;10374901;28;20508;-70
2022/04/03 01:47:25;;;;;;;5.00;2.80;;;;;;;0.51;72.59;102402.59;10374290;28;20121;-73
2022/04/03 01:52:26;;;;;;;9.32;3.35;;;;;;;0.33;72.55;102410.78;10374942;28;20065;-71
2022/04/03 01:57:26;;;;;;;6.72;2.88;;;;;;;0.21;72.84;102406.19;10373120;28;20462;-71
2022/04/03 02:02:27;;;;;;;5.18;3.55;;;;;;;0.11;73.35;102405.06;10372142;28;20103;-70
2022/04/03 02:07:29;;;;;;;3.83;3.17;;;;;;;-0.07;72.96;102404.34;10372112;28;20390;-71
2022/04/03 02:12:29;;;;;;;3.90;3.50;;;;;;;-0.21;73.13;102404.31;10379353;28;20465;-71
2022/04/03 02:17:30;;;;;;;4.90;3.85;;;;;;;-0.29;73.87;102405.63;10364636;28;20056;-71
2022/04/03 02:22:31;;;;;;;8.68;3.67;;;;;;;-0.38;74.08;102406.16;10381861;28;20117;-71
2022/04/03 02:27:31;;;;;;;13.40;4.85;;;;;;;-0.35;74.36;102400.66;10381944;28;20030;-70
2022/04/03 02:32:32;;;;;;;8.52;3.28;;;;;;;-0.42;74.41;102399.28;10382360;28;20057;-70
2022/04/03 02:37:33;;;;;;;5.65;3.13;;;;;;;-0.43;74.24;102404.72;10378921;28;20095;-70
2022/04/03 02:42:34;;;;;;;6.28;3.78;;;;;;;-0.49;74.06;102403.25;10378280;28;20042;-70
2022/04/03 02:47:34;;;;;;;4.10;3.67;;;;;;;-0.58;74.78;102407.28;10379524;28;20034;-70
2022/04/03 02:52:35;;;;;;;6.80;3.58;;;;;;;-0.66;74.42;102398.91;10378712;28;20045;-71
2022/04/03 02:57:35;;;;;;;6.28;3.90;;;;;;;-0.71;75.44;102415.13;10362325;28;20026;-70
2022/04/03 03:02:35;;;;;;;7.95;3.47;;;;;;;-0.75;75.81;102416.25;10380132;28;20034;-71
2022/04/03 03:07:39;;;;;;;5.55;4.05;;;;;;;-0.80;74.97;102409.47;10378703;28;20026;-72
2022/04/03 03:12:39;;;;;;;5.25;3.83;;;;;;;-0.83;75.31;102413.19;10377685;28;20030;-70
2022/04/03 03:17:40;;;;;;;10.65;4.05;;;;;;;-0.91;74.77;102410.09;10378934;28;20038;-70
2022/04/03 03:22:41;;;;;;;6.80;3.25;;;;;;;-1.01;75.93;102409.75;10378652;28;20126;-71
2022/04/03 03:27:41;;;;;;;3.88;3.40;;;;;;;-1.05;75.74;102410.00;10378849;28;20126;-71
2022/04/03 03:32:42;;;;;;;7.78;4.13;;;;;;;-1.08;76.09;102411.03;10376490;28;20473;-71
2022/04/03 03:37:42;;;;;;;6.43;4.22;;;;;;;-1.11;75.69;102403.22;10377035;28;20053;-71
2022/04/03 03:42:42;;;;;;;6.82;4.20;;;;;;;-1.19;76.53;102406.28;10376674;28;20038;-71
2022/04/03 03:47:44;;;;;;;7.72;4.30;;;;;;;-1.23;76.25;102407.41;10375948;28;20469;-71
2022/04/03 03:52:45;;;;;;;5.22;4.30;;;;;;;-1.22;76.69;102409.13;10375937;28;20087;-71
2022/04/03 03:57:46;;;;;;;4.72;4.00;;;;;;;-1.23;76.70;102404.75;10377209;28;20034;-71
2022/04/03 04:02:46;;;;;;;5.25;4.15;;;;;;;-1.18;76.40;102412.47;10375908;28;20125;-71
2022/04/03 04:07:47;;;;;;;7.50;3.97;;;;;;;-1.20;77.33;102417.88;10377980;28;20120;-71
2022/04/03 04:12:47;;;;;;;5.25;4.63;;;;;;;-1.27;76.78;102413.84;10376856;28;20551;-71
2022/04/03 04:17:48;;;;;;;4.20;3.78;;;;;;;-1.33;76.68;102413.31;10376789;28;20037;-71
2022/04/03 04:22:49;;;;;;;4.05;3.67;;;;;;;-1.30;76.70;102426.44;10377096;28;20488;-71
2022/04/03 04:27:50;;;;;;;6.25;5.35;;;;;;;-1.30;77.63;102429.94;10377780;28;20033;-71
2022/04/03 04:32:50;;;;;;;4.75;3.90;;;;;;;-1.26;77.79;102420.84;10377573;28;20040;-72
2022/04/03 04:37:50;;;;;;;3.80;3.47;;;;;;;-1.14;77.78;102429.13;10377181;28;20065;-70
2022/04/03 04:42:51;;;;;;;5.05;3.63;;;;;;;-1.14;77.84;102429.97;10376804;28;20101;-71
2022/04/03 04:47:59;;;;;;;9.23;3.80;;;;;;;-1.14;77.72;102427.31;10374870;28;20038;-71
2022/04/03 04:52:59;;;;;;;7.07;5.10;;;;;;;-1.16;77.71;102423.88;10374986;28;20133;-71
2022/04/03 04:58:00;;;;;;;5.82;4.43;;;;;;;-1.21;78.00;102425.94;10375618;28;20025;-71
2022/04/03 05:03:00;;;;;;;4.93;4.40;;;;;;;-1.11;78.17;102427.16;10374562;28;20497;-71
2022/04/03 05:08:00;;;;;;;4.47;4.05;;;;;;;-1.11;78.45;102429.81;10375988;28;20103;-71
2022/04/03 05:13:01;;;;;;;9.65;4.38;;;;;;;-1.15;78.34;102420.25;10357226;28;20054;-71
2022/04/03 05:18:02;;;;;;;7.53;4.65;;;;;;;-0.80;80.38;102418.34;10376112;28;20041;-71
2022/04/03 05:23:02;;;;;;;8.43;4.40;;;;;;;-0.80;80.01;102421.00;10374470;28;20036;-71
2022/04/03 05:28:03;;;;;;;3.80;3.58;;;;;;;-0.87;80.09;102426.72;10374843;28;20117;-71
2022/04/03 05:33:03;;;;;;;14.02;7.10;;;;;;;-0.93;79.96;102422.59;10374925;28;20382;-71
2022/04/03 05:38:04;;;;;;;8.80;5.68;;;;;;;-0.92;79.34;102421.66;10374433;28;20055;-71
2022/04/03 05:43:05;;;;;;;13.63;5.22;;;;;;;-0.87;80.15;102416.94;10373965;28;20037;-71
2022/04/03 05:48:06;;;;;;;5.53;5.03;;;;;;;-0.71;80.22;102414.28;10380634;28;20426;-71
2022/04/03 05:53:06;;;;;;;6.80;4.32;;;;;;;-0.50;80.50;102412.19;10380798;28;20034;-71
2022/04/03 05:58:07;;;;;;;8.93;5.32;;;;;;;-0.34;80.57;102415.69;10380979;28;20029;-70
2022/04/03 06:03:07;;;;;;;9.45;4.28;;;;;;;-0.15;80.20;102419.94;10381286;28;20451;-72
2022/04/03 06:08:08;;;;;;;7.47;4.78;;;;;;;0.27;80.84;102424.47;10363867;28;20080;-71
2022/04/03 06:13:09;;;;;;;8.23;5.65;;;;;;;1.89;81.03;102417.69;10378909;28;20150;-71
2022/04/03 06:18:10;;;;;;;5.22;4.72;;;;;;;3.17;78.81;102423.81;10381027;28;20040;-71
2022/04/03 06:23:23;;;;;;;9.18;5.95;;;;;;;4.63;77.21;102425.19;10379996;28;20092;-71
2022/04/03 06:28:25;;;;;;;7.38;6.18;;;;;;;5.68;76.05;102417.56;10379316;28;20061;-72
2022/04/03 06:33:25;;;;;;;11.48;6.13;;;;;;;6.26;75.96;102425.25;10380102;28;20038;-73
2022/04/03 06:38:25;;;;;;;8.13;5.18;;;;;;;7.26;74.88;102429.94;10381117;28;20033;-72
2022/04/03 06:43:27;;;;;;;13.20;5.35;;;;;;;8.02;74.95;102430.13;10379505;28;20445;-72
2022/04/03 06:48:28;;;;;;;3.10;2.90;;;;;;;8.49;75.96;102432.94;10378918;28;20419;-72
2022/04/03 06:53:29;;;;;;;6.07;2.88;;;;;;;9.16;75.01;102428.25;10347986;28;20033;-72
2022/04/03 06:58:29;;;;;;;3.88;3.25;;;;;;;9.81;75.84;102428.09;10379020;28;20030;-72
2022/04/03 07:03:31;;;;;;;6.93;3.10;;;;;;;10.63;73.68;102426.88;10379513;28;20058;-72
2022/04/03 07:08:32;;;;;;;3.28;2.30;;;;;;;11.51;72.38;102426.53;10379008;28;20367;-71
2022/04/03 07:13:33;;;;;;;5.03;2.22;;;;;;;12.11;71.86;102420.84;10378646;28;20069;-72
2022/04/03 07:18:36;;;;;;;3.28;2.58;;;;;;;12.53;71.39;102427.94;10376961;28;20045;-71
2022/04/03 07:23:37;;;;;;;2.03;1.80;;;;;;;13.15;61.01;102428.06;10377843;28;20113;-71
2022/04/03 07:28:37;;;;;;;1.63;1.63;;;;;;;12.09;60.60;102426.47;10377718;28;20033;-71
2022/04/03 07:33:38;;;;;;;3.88;1.92;;;;;;;11.00;66.40;102439.25;10376469;28;20044;-73
2022/04/03 07:38:38;;;;;;;4.18;1.65;;;;;;;9.12;62.78;102435.78;10379043;28;20053;-72
2022/04/03 07:43:39;;;;;;;3.30;1.75;;;;;;;8.02;67.27;102452.56;10378071;28;20423;-72
2022/04/03 07:48:39;;;;;;;6.00;1.95;;;;;;;7.50;69.07;102453.78;10376648;28;20121;-75
2022/04/03 07:53:39;;;;;;;1.88;1.75;;;;;;;7.44;69.91;102447.13;10377031;28;20038;-71
2022/04/03 07:58:40;;;;;;;4.07;1.83;;;;;;;8.99;66.54;102440.69;10375723;28;20034;-72
2022/04/03 08:03:40;;;;;;;6.28;2.42;;;;;;;10.40;63.58;102435.56;10324423;28;20136;-71
2022/04/03 08:08:41;;;;;;;1.80;1.70;;;;;;;11.90;62.85;102442.22;10379289;28;20477;-73
2022/04/03 08:13:42;;;;;;;1.83;1.70;;;;;;;12.72;60.14;102430.25;10377848;28;20054;-72
2022/04/03 08:18:43;;;;;;;2.08;1.98;;;;;;;13.29;57.18;102421.06;10377856;28;20199;-72
2022/04/03 08:23:44;;;;;;;2.40;2.20;;;;;;;13.70;55.61;102431.69;10376861;28;20037;-73
2022/04/03 08:28:44;;;;;;;4.93;2.58;;;;;;;13.99;50.92;102427.41;10377700;28;20033;-72
2022/04/03 08:33:47;;;;;;;1.85;1.75;;;;;;;14.78;48.96;102439.59;10375758;28;20026;-73
2022/04/03 08:38:50;;;;;;;2.05;1.85;;;;;;;14.69;51.29;102434.44;10328202;28;20054;-74
2022/04/03 08:43:50;;;;;;;1.20;1.10;;;;;;;13.29;55.19;102439.25;10376196;28;20113;-72
2022/04/03 08:48:50;;;;;;;0.75;0.75;;;;;;;11.84;53.88;102446.47;10375826;28;20129;-72
2022/04/03 08:53:51;;;;;;;2.70;1.35;;;;;;;10.51;58.30;102439.84;10374103;28;20038;-71
2022/04/03 08:58:52;;;;;;;1.98;1.08;;;;;;;9.68;60.25;102442.00;10358396;28;20130;-72
2022/04/03 09:03:52;;;;;;;2.50;1.15;;;;;;;9.73;61.42;102445.97;10375681;28;20087;-72
2022/04/03 09:08:52;;;;;;;3.22;1.02;;;;;;;9.99;60.71;102435.19;10376579;28;20088;-72
2022/04/03 09:13:53;;;;;;;2.25;0.77;;;;;;;10.23;58.79;102437.22;10375583;28;20062;-72
2022/04/03 09:18:53;;;;;;;6.15;1.00;;;;;;;10.01;60.46;102432.31;10373935;28;20382;-73
2022/04/03 09:24:07;;;;;;;1.10;1.00;;;;;;;9.67;53.62;102441.16;10374492;28;20044;-72
2022/04/03 09:29:12;;;;;;;1.60;1.13;;;;;;;8.34;58.85;102462.19;10373969;28;20030;-71
2022/04/03 09:34:17;;;;;;;0.90;0.85;;;;;;;7.50;63.34;102461.88;10373995;28;20033;-71
2022/04/03 09:39:24;;;;;;;5.70;1.35;;;;;;;7.24;64.55;102454.31;10376514;28;20041;-71
2022/04/03 09:44:29;;;;;;;1.00;1.00;;;;;;;7.13;65.47;102446.34;10375191;28;20044;-71
2022/04/03 09:49:29;;;;;;;2.30;1.13;;;;;;;7.42;65.57;102444.56;10375314;28;20037;-71
2022/04/03 09:54:29;;;;;;;0.85;0.85;;;;;;;7.72;65.39;102440.06;10374113;28;20038;-72
2022/04/03 09:59:30;;;;;;;1.58;1.48;;;;;;;8.44;65.29;102429.81;10374271;28;20413;-71
2022/04/03 10:04:33;;;;;;;1.85;1.50;;;;;;;9.42;64.00;102422.97;10374876;28;20041;-72
2022/04/03 10:09:33;;;;;;;4.32;1.58;;;;;;;9.86;62.30;102410.41;10372842;28;20084;-72
2022/04/03 10:14:34;;;;;;;4.85;2.35;;;;;;;10.08;63.36;102419.00;10371491;28;20065;-71
2022/04/03 10:19:34;;;;;;;1.60;1.20;;;;;;;12.68;60.29;102409.06;10371257;28;20397;-72
2022/04/03 10:24:35;;;;;;;2.63;1.40;;;;;;;13.04;57.59;102396.66;10373065;28;20034;-72
2022/04/03 10:29:39;;;;;;;7.13;1.65;;;;;;;11.39;60.64;102410.59;10371426;28;20033;-71
2022/04/03 10:34:50;;;;;;;1.02;0.88;;;;;;;9.91;59.43;102408.06;10362795;28;20038;-72
2022/04/03 10:39:53;;;;;;;1.10;1.10;;;;;;;9.18;61.38;102418.97;10380673;28;20026;-72
2022/04/03 10:45:11;;;;;;;2.97;1.23;;;;;;;11.19;60.51;102411.88;10380976;28;20109;-71
2022/04/03 10:50:12;;;;;;;2.10;1.17;;;;;;;12.94;58.29;102415.06;10379662;28;20058;-71
2022/04/03 10:55:19;;;;;;;1.48;1.38;;;;;;;12.99;54.41;102400.97;10378621;28;20049;-72
2022/04/03 11:00:20;;;;;;;1.02;1.00;;;;;;;13.80;55.99;102405.06;10363742;28;20487;-72
2022/04/03 11:05:24;;;;;;;0.97;0.93;;;;;;;15.26;50.57;102396.38;10380679;28;20168;-72
2022/04/03 11:10:45;;;;;;;0.80;0.80;;;;;;;15.66;49.98;102399.50;10380221;28;20381;-72
2022/04/03 11:15:50;;;;;;;12.38;2.00;;;;;;;15.92;51.61;102396.25;10386317;28;20057;-73
2022/04/03 11:21:03;;;;;;;1.50;1.10;;;;;;;15.13;49.81;102398.09;10386506;28;20038;-73
2022/04/03 11:26:04;;;;;;;2.72;0.88;;;;;;;15.79;51.81;102390.63;10364275;28;20037;-72
2022/04/03 11:31:04;;;;;;;0.80;0.80;;;;;;;16.61;49.23;102390.00;10383685;28;20084;-73
2022/04/03 11:36:16;;;;;;;0.73;0.73;;;;;;;17.22;49.69;102381.06;10394444;28;20037;-74
2022/04/03 11:41:27;;;;;;;1.08;1.08;;;;;;;17.41;46.39;102374.78;10382991;28;20076;-74
2022/04/03 11:46:28;;;;;;;1.17;1.17;;;;;;;17.12;46.56;102375.97;10394589;28;20068;-73
2022/04/03 11:51:28;;;;;;;3.20;1.17;;;;;;;16.94;49.40;102359.28;10393599;28;20052;-73
2022/04/03 11:56:34;;;;;;;0.85;0.85;;;;;;;17.36;49.22;102355.44;10394902;28;20038;-73
2022/04/03 12:01:42;;;;;;;1.23;0.87;;;;;;;17.87;48.50;102351.31;10373361;28;20087;-72
2022/04/03 12:06:43;;;;;;;1.00;1.00;;;;;;;17.17;48.66;102350.75;10389648;28;20329;-72
2022/04/03 12:11:50;;;;;;;0.80;0.80;;;;;;;16.54;47.86;102342.66;10396699;28;20041;-73
2022/04/03 12:17:00;;;;;;;1.30;0.88;;;;;;;17.64;44.07;102343.44;10398446;28;20117;-72
2022/04/03 12:22:04;;;;;;;8.38;1.30;;;;;;;16.06;42.74;102336.25;10396537;28;20038;-72
2022/04/03 12:27:18;;;;;;;1.23;1.23;;;;;;;15.29;49.37;102335.94;10309829;28;20119;-73
2022/04/03 12:32:18;;;;;;;0.80;0.80;;;;;;;15.72;46.34;102335.97;10384344;28;20041;-72
2022/04/03 12:37:19;;;;;;;0.90;0.80;;;;;;;16.99;48.14;102329.41;10377697;28;20057;-71
2022/04/03 12:42:26;;;;;;;1.08;0.93;;;;;;;17.04;43.71;102328.78;10376760;28;20068;-72
2022/04/03 12:47:29;;;;;;;1.60;1.08;;;;;;;17.28;45.37;102328.22;10376531;28;20443;-71
2022/04/03 12:52:45;;;;;;;0.80;0.80;;;;;;;17.00;42.56;102322.88;10376290;28;20104;-72
2022/04/03 13:03:05;;;;;;;1.10;0.90;;;;;;;16.88;44.20;102308.97;10360828;28;20397;-72
2022/04/03 13:08:09;;;;;;;0.88;0.88;;;;;;;16.68;42.39;102318.94;10374295;28;20338;-72
2022/04/03 13:13:19;;;;;;;3.00;1.92;;;;;;;16.87;44.87;102310.00;10375769;28;20034;-71
2022/04/03 13:18:20;;;;;;;4.15;1.10;;;;;;;16.71;42.08;102311.16;10358520;28;20054;-72
2022/04/03 13:23:21;;;;;;;3.60;0.90;;;;;;;15.63;45.00;102309.78;10373778;28;20050;-71
2022/04/03 13:28:22;;;;;;;3.95;1.08;;;;;;;16.15;45.66;102305.00;10372559;28;20030;-71
2022/04/03 13:33:22;;;;;;;0.77;0.77;;;;;;;16.14;47.17;102297.81;10356820;28;20030;-72
2022/04/03 13:38:23;;;;;;;1.15;0.73;;;;;;;16.54;46.73;102295.31;10373907;28;20049;-71
2022/04/03 13:43:23;;;;;;;0.70;0.70;;;;;;;16.67;41.33;102296.22;10374342;28;20492;-76
2022/04/03 13:48:24;;;;;;;1.70;0.90;;;;;;;15.38;41.54;102293.00;10373703;28;20121;-74
2022/04/03 13:53:25;;;;;;;0.93;0.93;;;;;;;15.05;43.32;102287.19;10373535;28;20117;-73
2022/04/03 13:58:26;;;;;;;1.40;0.95;;;;;;;15.21;44.44;102277.91;10374452;28;20466;-71
2022/04/03 14:03:28;;;;;;;0.55;0.55;;;;;;;14.45;42.16;102272.78;10374222;28;20091;-72
2022/04/03 14:08:29;;;;;;;7.78;0.82;;;;;;;13.73;45.31;102268.84;10379645;28;20519;-73
2022/04/03 14:13:31;;;;;;;2.60;0.90;;;;;;;13.77;47.30;102274.75;10380333;28;20033;-72
2022/04/03 14:18:31;;;;;;;0.80;0.80;;;;;;;12.96;46.93;102268.91;10380104;28;20070;-71
2022/04/03 14:23:32;;;;;;;1.90;1.30;;;;;;;13.30;47.55;102254.06;10380226;28;20038;-72
2022/04/03 14:28:34;;;;;;;1.05;1.05;;;;;;;13.45;46.00;102254.13;10348033;28;20025;-74
2022/04/03 14:33:34;;;;;;;0.73;0.70;;;;;;;12.62;47.74;102255.69;10380165;28;20044;-71
2022/04/03 14:38:34;;;;;;;1.15;1.15;;;;;;;12.86;47.41;102253.84;10381118;28;20030;-71
2022/04/03 14:43:35;;;;;;;2.75;0.88;;;;;;;12.96;49.98;102249.88;10381478;28;20051;-71
2022/04/03 14:48:35;;;;;;;1.63;0.90;;;;;;;12.51;46.58;102247.94;10380051;28;20062;-71
2022/04/03 14:53:36;;;;;;;0.88;0.88;;;;;;;11.82;49.60;102264.75;10378729;28;20042;-71
2022/04/03 14:58:36;;;;;;;0.88;0.88;;;;;;;11.04;49.95;102267.13;10379660;28;20112;-71
2022/04/03 15:03:37;;;;;;;0.60;0.60;;;;;;;10.40;51.08;102258.66;10380249;28;20040;-71
2022/04/03 15:08:37;;;;;;;2.90;1.23;;;;;;;9.84;53.55;102258.16;10378093;28;20558;-71
2022/04/03 15:13:38;;;;;;;6.95;1.90;;;;;;;9.75;55.00;102253.72;10378279;28;20038;-71
2022/04/03 15:18:39;;;;;;;0.88;0.88;;;;;;;10.00;54.43;102250.16;10377221;28;20102;-73
2022/04/03 15:23:39;;;;;;;5.63;1.50;;;;;;;9.78;55.12;102246.13;10377599;28;20125;-71
2022/04/03 15:28:41;;;;;;;2.40;1.05;;;;;;;9.55;55.94;102234.16;10378432;28;20095;-72
2022/04/03 15:33:41;;;;;;;1.38;1.25;;;;;;;9.36;56.03;102232.47;10378636;28;20034;-72
2022/04/03 15:38:42;;;;;;;2.42;1.45;;;;;;;9.22;56.23;102230.31;10376590;28;20338;-71
2022/04/03 15:43:43;;;;;;;1.60;1.23;;;;;;;9.17;56.64;102236.22;10377588;28;20030;-72
2022/04/03 15:48:45;;;;;;;2.85;2.00;;;;;;;9.23;56.96;102230.19;10376310;28;20417;-71
2022/04/03 15:53:45;;;;;;;1.58;1.48;;;;;;;9.20;56.40;102226.94;10376926;28;20048;-72
2022/04/03 15:58:46;;;;;;;4.40;1.00;;;;;;;9.19;56.12;102214.41;10377527;28;20445;-71
2022/04/03 16:03:46;;;;;;;3.50;2.88;;;;;;;9.45;56.33;102203.66;10377586;28;20030;-71
2022/04/03 16:08:49;;;;;;;2.05;1.40;;;;;;;9.38;57.46;102216.09;10375754;28;20030;-71
2022/04/03 16:13:49;;;;;;;2.15;1.17;;;;;;;9.30;58.72;102222.28;10375487;28;20067;-70
2022/04/03 16:18:50;;;;;;;1.67;1.17;;;;;;;8.98;58.98;102214.75;10359245;28;20108;-71
2022/04/03 16:23:50;;;;;;;1.40;1.30;;;;;;;8.38;59.16;102215.31;10375922;28;20105;-70
2022/04/03 16:28:52;;;;;;;1.80;1.60;;;;;;;7.96;59.70;102217.63;10376720;28;20347;-71
2022/04/03 16:33:57;;;;;;;5.28;1.55;;;;;;;7.69;59.88;102209.34;10376051;28;20046;-71
2022/04/03 16:38:57;;;;;;;1.10;1.10;;;;;;;7.46;60.39;102219.56;10375696;28;20077;-71
2022/04/03 16:43:58;;;;;;;2.30;1.50;;;;;;;7.32;62.12;102206.56;10375222;28;20037;-70
2022/04/03 16:48:59;;;;;;;1.27;1.25;;;;;;;7.32;62.62;102203.88;10375831;28;20485;-71
2022/04/03 16:53:59;;;;;;;1.98;1.70;;;;;;;7.34;61.07;102201.91;10357440;28;20363;-71
2022/04/03 16:59:02;;;;;;;2.17;1.30;;;;;;;7.25;62.60;102200.06;10374040;28;20041;-71
2022/04/03 17:04:02;;;;;;;6.05;1.40;;;;;;;6.98;63.16;102192.69;10374998;28;20038;-71
2022/04/03 17:09:03;;;;;;;1.30;1.30;;;;;;;6.86;65.31;102207.28;10374653;28;20034;-72
2022/04/03 17:14:03;;;;;;;2.97;2.03;;;;;;;6.72;65.60;102201.34;10373467;28;20042;-71
2022/04/03 17:19:05;;;;;;;2.72;1.58;;;;;;;6.63;66.12;102207.56;10375515;28;20101;-71
2022/04/03 17:24:05;;;;;;;1.52;1.42;;;;;;;6.59;66.98;102203.44;10374405;28;20050;-72
2022/04/03 17:29:06;;;;;;;9.25;1.88;;;;;;;6.80;67.29;102202.50;10356666;28;20473;-72
2022/04/03 17:34:08;;;;;;;1.25;1.15;;;;;;;7.06;66.64;102192.00;10373616;28;20057;-72
2022/04/03 17:39:09;;;;;;;4.53;2.13;;;;;;;7.11;68.75;102179.78;10374557;28;20430;-71
2022/04/03 17:44:10;;;;;;;6.45;2.17;;;;;;;7.10;66.20;102170.00;10382456;28;20045;-72
2022/04/03 17:49:10;;;;;;;4.18;2.60;;;;;;;6.84;66.27;102169.75;10382234;28;20034;-72
2022/04/03 17:54:10;;;;;;;1.75;1.65;;;;;;;6.52;65.00;102176.25;10364535;28;20048;-72
2022/04/03 17:59:11;;;;;;;4.72;1.85;;;;;;;6.28;65.27;102179.31;10382004;28;20091;-72
2022/04/03 18:04:12;;;;;;;3.55;2.45;;;;;;;6.00;65.05;102180.09;10380549;28;20138;-71
2022/04/03 18:09:13;;;;;;;5.80;2.15;;;;;;;5.74;65.50;102179.66;10381074;28;20045;-72
2022/04/03 18:14:15;;;;;;;3.05;2.53;;;;;;;5.51;66.75;102177.13;10380179;28;20042;-72
2022/04/03 18:19:16;;;;;;;1.88;1.77;;;;;;;5.40;67.50;102179.91;10382964;28;20113;-73
2022/04/03 18:24:17;;;;;;;4.32;2.38;;;;;;;5.31;66.79;102186.94;10380509;28;20371;-71
2022/04/03 18:29:17;;;;;;;2.08;1.98;;;;;;;5.23;66.85;102185.88;10365441;28;20034;-72
2022/04/03 18:34:18;;;;;;;1.77;1.67;;;;;;;5.09;68.14;102187.91;10380693;28;20440;-73
2022/04/03 18:39:18;;;;;;;3.17;1.90;;;;;;;5.05;67.19;102188.31;10380341;28;20064;-72
2022/04/03 18:44:21;;;;;;;2.28;2.08;;;;;;;4.92;66.63;102188.47;10380753;28;20425;-72
2022/04/03 18:49:22;;;;;;;3.15;2.20;;;;;;;4.85;69.93;102190.84;10383683;28;20036;-71
2022/04/03 18:54:22;;;;;;;2.63;2.10;;;;;;;4.88;69.11;102182.53;10379772;28;20040;-72
2022/04/03 18:59:24;;;;;;;4.13;2.85;;;;;;;4.83;70.57;102171.31;10380847;28;20034;-72
2022/04/03 19:04:24;;;;;;;7.90;2.30;;;;;;;4.82;71.41;102166.94;10378890;28;20088;-72
2022/04/03 19:09:25;;;;;;;2.65;2.33;;;;;;;4.79;69.45;102167.19;10379933;28;20387;-71
2022/04/03 19:14:25;;;;;;;2.90;2.50;;;;;;;4.74;70.77;102153.28;10378909;28;20473;-72
2022/04/03 19:19:26;;;;;;;8.63;3.40;;;;;;;4.79;70.82;102161.81;10378308;28;20030;-72
2022/04/03 19:24:28;;;;;;;3.90;3.50;;;;;;;4.81;69.72;102154.47;10377844;28;20057;-72
2022/04/03 19:29:30;;;;;;;4.80;3.60;;;;;;;4.78;70.54;102153.88;10361580;28;20061;-72
2022/04/03 19:34:31;;;;;;;2.53;2.03;;;;;;;4.83;70.59;102155.22;10377069;28;20069;-71
2022/04/03 19:39:33;;;;;;;12.32;3.63;;;;;;;4.88;70.51;102154.81;10377756;28;20057;-72
2022/04/03 19:44:34;;;;;;;2.88;2.67;;;;;;;4.98;72.55;102157.56;10377259;28;20040;-72
2022/04/03 19:49:34;;;;;;;7.60;4.38;;;;;;;5.16;73.57;102158.69;10377034;28;20034;-72
2022/04/03 19:54:35;;;;;;;6.13;2.38;;;;;;;5.17;74.65;102148.78;10360280;28;20123;-72
2022/04/03 19:59:36;;;;;;;7.55;3.28;;;;;;;4.96;75.18;102143.44;10375818;28;20041;-72
2022/04/03 20:04:37;;;;;;;4.00;2.38;;;;;;;4.92;76.41;102158.97;10376228;28;20038;-71
2022/04/03 20:09:38;;;;;;;5.40;3.05;;;;;;;4.87;75.04;102153.97;10377040;28;20034;-73
2022/04/03 20:14:38;;;;;;;2.15;2.03;;;;;;;4.66;76.96;102139.69;10359198;28;20053;-72
2022/04/03 20:19:39;;;;;;;6.53;2.38;;;;;;;4.63;75.81;102131.91;10377782;28;20073;-73
2022/04/03 20:24:39;;;;;;;3.33;2.70;;;;;;;4.61;77.11;102123.97;10376725;28;20042;-72
2022/04/03 20:29:40;;;;;;;4.30;3.38;;;;;;;4.58;77.08;102121.53;10376516;28;20042;-73
2022/04/03 20:34:40;;;;;;;6.18;3.58;;;;;;;4.56;77.92;102117.28;10375903;28;20096;-73
2022/04/03 20:39:41;;;;;;;1.80;1.70;;;;;;;4.56;77.95;102109.22;10376053;28;20034;-72
2022/04/03 20:44:41;;;;;;;2.75;2.40;;;;;;;4.45;78.11;102103.91;10375719;28;20065;-72
2022/04/03 20:49:41;;;;;;;5.85;2.75;;;;;;;4.42;77.53;102105.88;10376336;28;20034;-72
2022/04/03 20:54:42;;;;;;;5.10;2.72;;;;;;;4.34;77.95;102097.63;10377400;28;20489;-73
2022/04/03 20:59:42;;;;;;;3.00;2.45;;;;;;;4.32;77.22;102094.22;10376551;28;20373;-73
2022/04/03 21:04:43;;;;;;;2.67;2.47;;;;;;;4.22;77.43;102082.56;10375783;28;20037;-71
2022/04/03 21:09:43;;;;;;;4.40;3.28;;;;;;;4.14;81.33;102079.63;10375589;28;20040;-72
2022/04/03 21:14:44;;;;;;;3.45;2.92;;;;;;;4.19;79.50;102074.75;10375031;28;20061;-73
2022/04/03 21:19:44;;;;;;;4.35;3.83;;;;;;;4.11;78.68;102069.16;10375018;28;20045;-72
2022/04/03 21:24:45;;;;;;;3.03;2.78;;;;;;;4.05;78.75;102065.19;10374324;28;20113;-71
2022/04/03 21:29:45;;;;;;;4.13;3.35;;;;;;;3.99;81.06;102054.97;10373829;28;20384;-73
2022/04/03 21:34:46;;;;;;;2.47;2.30;;;;;;;3.94;81.55;102059.84;10357138;28;20073;-72
2022/04/03 21:39:46;;;;;;;4.95;3.08;;;;;;;3.86;82.55;102039.03;10374712;28;20053;-73
2022/04/03 21:44:47;;;;;;;3.20;2.92;;;;;;;3.84;81.95;102034.78;10375254;28;20042;-73
2022/04/03 21:49:47;;;;;;;6.22;3.42;;;;;;;3.86;82.53;102031.00;10374706;28;20601;-73
2022/04/03 21:54:48;;;;;;;3.72;3.00;;;;;;;3.83;83.86;102023.22;10374452;28;20121;-72
2022/04/03 21:59:48;;;;;;;4.07;3.70;;;;;;;3.81;86.38;102017.13;10373699;28;20060;-72
2022/04/03 22:04:49;;;;;;;4.40;4.00;;;;;;;3.79;86.34;102008.34;10374058;28;20038;-73
2022/04/03 22:09:49;;;;;;;5.32;4.18;;;;;;;3.78;88.47;102009.34;10356503;28;20030;-73
2022/04/03 22:14:49;;;;;;;6.50;3.92;;;;;;;3.76;89.83;101989.84;10374151;28;20061;-73
2022/04/03 22:19:50;;;;;;;4.18;3.88;;;;;;;3.76;90.49;101989.84;10373823;28;20492;-72
2022/04/03 22:24:50;;;;;;;8.43;5.53;;;;;;;3.81;90.09;101984.97;10373620;28;20074;-72
2022/04/03 22:29:51;;;;;;;5.07;4.60;;;;;;;3.80;90.38;101983.28;10362432;28;20030;-73
2022/04/03 22:34:51;;;;;;;6.18;5.40;;;;;;;3.80;90.49;101979.72;10380588;28;20201;-72
2022/04/03 22:39:51;;;;;;;6.25;4.80;;;;;;;3.82;90.39;101964.38;10381958;28;20053;-73
2022/04/03 22:44:52;;;;;;;5.43;4.90;;;;;;;3.82;93.25;101961.72;10379778;28;20057;-72
2022/04/03 22:49:52;;;;;;;8.45;6.43;;;;;;;3.89;93.26;101950.38;10379106;28;20058;-73
2022/04/03 22:54:53;;;;;;;9.25;5.18;;;;;;;3.89;94.24;101946.81;10379134;28;20042;-72
2022/04/03 22:59:53;;;;;;;7.50;6.45;;;;;;;3.97;92.92;101944.34;10378837;28;20155;-73
2022/04/03 23:04:53;;;;;;;8.35;5.53;;;;;;;4.00;92.15;101933.38;10380314;28;20049;-73
2022/04/03 23:09:54;;;;;;;7.85;6.85;;;;;;;3.89;95.10;101923.56;10380248;28;20065;-72
2022/04/03 23:14:54;;;;;;;8.10;6.18;;;;;;;3.98;93.31;101916.56;10378389;28;20139;-73
2022/04/03 23:19:55;;;;;;;6.65;6.05;;;;;;;3.90;96.00;101911.88;10378031;28;20053;-72